首页
METAR-TAF:

METAR-TAF

机场 :

Mersa Matruh, 埃及

纬度: 31-20N, 经度: 027-13E, 海拔: 25米

当前天气观测

该预报发布于41分钟前的10:00 UTC
风速8节,风向
温度 27°C
湿度 39%
气压 1015 hPa
能见度10公里或以上
1500米以下无云,无积雨云

METAR: HEMM 301000Z 35008KT CAVOK 27/12 Q1015 NOSIG

时间: 12:41 (10:41 UTC)

预报

该预报发布于5小时和41分钟前的05:00 UTC
预报有效从30日的 06点(UTC)到 31日的 12点(UTC)
风速7节,风向西
能见度10公里或以上
少量云层高于2000英尺
成为
从 30日的 10点(UTC)到 30日的 12点(UTC)
风速10节,风向西北

TAF: HEMM 300500Z 3006/3112 26007KT 9999 FEW020 BECMG 3010/3012 32010KT

超过4000个机场的气象观测和天气预报(METAR&TAF报告)。

可查询的气象台以黄色和红色小点在地图上表示。

将鼠标移到小点上方,可查看气象台名称。

然后点击查看天气观测和预报。

如需切换地图:点击带黑十字的绿色按钮放大地图;点击带横线的绿色按钮缩小地图;或者点击绿色箭头查看邻近地区的地图。


METAR-TAF: